Terminal Aerodrome Forecast
Issued by NWS

Home | Current Version | Previous Version | Text Only | Print | Product List | Glossary On
Versions: 1 2 3 4 5 6 7 8 9 10 11 12 13 14 15 16 17 18 19 20 21 22 23 24 25 26 27 28
000
FTUS43 KDDC 262322
TAFGCK
TAF
KGCK 262322Z 2700/2724 14015G25KT P6SM BKN250
     FM270500 10011G20KT P6SM SCT070
     FM270700 16011KT P6SM SCT080
     FM271200 23007KT 3SM BR BKN040
     FM271500 25010KT P6SM VCSH BKN250
     FM272200 25015G23KT P6SM VCSH BKN200
     FM272300 30013KT P6SM VCSH BKN150=

USA.gov is the U.S. government's official web portal to all federal, state and local government web resources and services.